createdAt,value
2023-01-17T00:01:49.176Z,2.80
2023-01-17T00:04:34.050Z,2.70
2023-01-17T00:07:19.235Z,3.03
2023-01-17T00:09:54.521Z,2.58
2023-01-17T00:12:21.931Z,2.65
2023-01-17T00:14:48.583Z,2.47
2023-01-17T00:17:15.475Z,2.42
2023-01-17T00:20:00.514Z,2.70
2023-01-17T00:22:49.866Z,2.45
2023-01-17T00:25:39.838Z,2.47
2023-01-17T00:28:06.656Z,2.83
2023-01-17T00:30:33.568Z,2.70
2023-01-17T00:33:00.511Z,2.45
2023-01-17T00:35:28.980Z,2.83
2023-01-17T00:38:10.541Z,2.70
2023-01-17T00:40:39.034Z,2.40
2023-01-17T00:43:25.018Z,2.70
2023-01-17T00:46:10.741Z,2.72
2023-01-17T00:48:56.551Z,2.30
2023-01-17T00:51:42.111Z,2.80
2023-01-17T00:54:27.387Z,2.72
2023-01-17T00:57:12.648Z,2.50
2023-01-17T00:59:57.742Z,2.42
2023-01-17T01:02:43.637Z,3.00
2023-01-17T01:05:29.865Z,2.65
2023-01-17T01:08:15.292Z,2.70
2023-01-17T01:11:01.408Z,2.78
2023-01-17T01:13:48.569Z,2.70
2023-01-17T01:16:35.000Z,2.45
2023-01-17T01:19:22.150Z,2.70
2023-01-17T01:22:07.220Z,2.70
2023-01-17T01:24:52.681Z,2.67
2023-01-17T01:27:37.799Z,2.63
2023-01-17T01:30:23.342Z,2.17
2023-01-17T01:33:08.271Z,2.67
2023-01-17T01:35:36.787Z,2.40
2023-01-17T01:38:03.778Z,3.05
2023-01-17T01:40:30.345Z,2.22
2023-01-17T01:42:59.781Z,2.22
2023-01-17T01:45:29.077Z,2.30
2023-01-17T01:48:03.271Z,2.58
2023-01-17T01:50:30.896Z,2.67
2023-01-17T01:53:01.199Z,2.60
2023-01-17T01:55:39.863Z,2.35
2023-01-17T01:58:27.886Z,2.70
2023-01-17T02:00:54.595Z,2.67
2023-01-17T02:03:24.698Z,2.17
2023-01-17T02:05:51.894Z,2.92
2023-01-17T02:08:20.761Z,2.63
2023-01-17T02:10:47.682Z,2.35
2023-01-17T02:13:16.934Z,2.38
2023-01-17T02:15:55.634Z,2.50
2023-01-17T02:18:41.012Z,2.45
2023-01-17T02:21:10.477Z,2.35
2023-01-17T02:24:09.469Z,2.20
2023-01-17T02:26:52.938Z,1.90
2023-01-17T02:29:22.422Z,2.17
2023-01-17T02:31:58.979Z,2.28
2023-01-17T02:34:33.662Z,2.60
2023-01-17T02:37:00.196Z,2.13
2023-01-17T02:39:37.659Z,1.90
2023-01-17T02:42:09.382Z,2.25
2023-01-17T02:44:43.507Z,2.55
2023-01-17T02:47:27.814Z,2.20
2023-01-17T02:49:58.190Z,2.05
2023-01-17T02:53:02.370Z,2.38
2023-01-17T02:55:38.009Z,2.20
2023-01-17T02:58:38.712Z,2.03
2023-01-17T03:01:30.219Z,2.03
2023-01-17T03:04:12.045Z,2.22
2023-01-17T03:06:58.922Z,1.90
2023-01-17T03:09:26.268Z,2.03
2023-01-17T03:11:53.375Z,2.10
2023-01-17T03:14:20.012Z,1.83
2023-01-17T03:16:46.664Z,1.80
2023-01-17T03:19:14.766Z,1.55
2023-01-17T03:21:41.302Z,1.85
2023-01-17T03:24:08.121Z,1.85
2023-01-17T03:26:34.932Z,1.90
2023-01-17T03:29:01.501Z,2.47
2023-01-17T03:31:28.120Z,2.20
2023-01-17T03:33:54.775Z,2.40
2023-01-17T03:36:21.314Z,2.10
2023-01-17T03:38:47.811Z,2.28
2023-01-17T03:41:14.419Z,2.13
2023-01-17T03:43:40.923Z,2.03
2023-01-17T03:46:18.866Z,2.05
2023-01-17T03:48:45.376Z,2.00
2023-01-17T03:51:11.947Z,2.13
2023-01-17T03:53:38.520Z,2.00
2023-01-17T03:56:05.358Z,1.80
2023-01-17T03:58:31.929Z,2.00
2023-01-17T04:00:58.497Z,2.08
2023-01-17T04:03:25.020Z,1.73
2023-01-17T04:05:51.876Z,1.92
2023-01-17T04:08:18.435Z,2.00
2023-01-17T04:10:44.944Z,1.65
2023-01-17T04:13:11.470Z,2.03
2023-01-17T04:15:38.666Z,1.98
2023-01-17T04:18:06.273Z,1.88
2023-01-17T04:20:38.037Z,2.00
2023-01-17T04:23:05.119Z,2.30
2023-01-17T04:25:31.747Z,1.90
2023-01-17T04:27:59.368Z,2.30
2023-01-17T04:30:27.039Z,2.30
2023-01-17T04:32:53.744Z,1.70
2023-01-17T04:35:20.492Z,1.70
2023-01-17T04:37:47.192Z,1.95
2023-01-17T04:40:14.180Z,2.00
2023-01-17T04:42:40.836Z,2.15
2023-01-17T04:45:08.194Z,1.90
2023-01-17T04:47:34.654Z,2.00
2023-01-17T04:50:01.145Z,1.83
2023-01-17T04:52:27.780Z,1.83
2023-01-17T04:54:54.296Z,1.70
2023-01-17T04:57:21.319Z,2.00
2023-01-17T04:59:47.899Z,2.00
2023-01-17T05:02:14.719Z,2.00
2023-01-17T05:04:41.227Z,1.70
2023-01-17T05:07:07.808Z,2.05
2023-01-17T05:09:34.364Z,2.20
2023-01-17T05:12:00.952Z,2.20
2023-01-17T05:14:27.536Z,2.05
2023-01-17T05:16:55.216Z,1.92
2023-01-17T05:19:22.361Z,1.75
2023-01-17T05:21:48.924Z,2.20
2023-01-17T05:24:15.550Z,2.00
2023-01-17T05:26:43.164Z,1.80
2023-01-17T05:29:10.218Z,2.10
2023-01-17T05:31:36.892Z,2.47
2023-01-17T05:34:04.140Z,1.95
2023-01-17T05:36:30.804Z,1.83
2023-01-17T05:38:57.412Z,1.77
2023-01-17T05:41:23.886Z,1.98
2023-01-17T05:43:50.459Z,2.00
2023-01-17T05:46:18.036Z,2.40
2023-01-17T05:48:44.690Z,2.55
2023-01-17T05:51:11.307Z,2.30
2023-01-17T05:53:37.919Z,2.00
2023-01-17T05:56:04.692Z,2.00
2023-01-17T05:58:31.315Z,1.83
2023-01-17T06:00:57.850Z,2.00
2023-01-17T06:03:24.447Z,2.15
2023-01-17T06:05:51.171Z,1.83
2023-01-17T06:08:17.805Z,1.88
2023-01-17T06:10:44.348Z,2.53
2023-01-17T06:13:14.341Z,1.98
2023-01-17T06:15:41.377Z,1.95
2023-01-17T06:18:12.392Z,2.05
2023-01-17T06:20:39.663Z,1.92
2023-01-17T06:23:08.920Z,1.80
2023-01-17T06:25:40.621Z,2.42
2023-01-17T06:28:07.709Z,2.15
2023-01-17T06:30:34.650Z,2.72
2023-01-17T06:33:01.374Z,2.00
2023-01-17T06:35:28.084Z,1.88
2023-01-17T06:37:55.767Z,2.13
2023-01-17T06:40:22.727Z,2.28
2023-01-17T06:42:49.329Z,1.95
2023-01-17T06:45:16.022Z,2.10
2023-01-17T06:47:42.995Z,2.72
2023-01-17T06:50:12.513Z,2.10
2023-01-17T06:52:39.943Z,2.08
2023-01-17T06:55:07.444Z,2.30
2023-01-17T06:57:33.971Z,2.22
2023-01-17T07:00:00.637Z,2.45
2023-01-17T07:02:27.194Z,2.05
2023-01-17T07:04:53.723Z,2.40
2023-01-17T07:07:20.374Z,2.42
2023-01-17T07:09:46.955Z,2.42
2023-01-17T07:12:13.908Z,2.60
2023-01-17T07:14:40.480Z,2.30
2023-01-17T07:17:07.062Z,2.38
2023-01-17T07:19:33.529Z,2.10
2023-01-17T07:22:00.118Z,2.45
2023-01-17T07:24:26.691Z,2.47
2023-01-17T07:26:53.533Z,2.38
2023-01-17T07:29:20.045Z,2.65
2023-01-17T07:31:48.664Z,2.35
2023-01-17T07:34:15.239Z,2.40
2023-01-17T07:36:41.745Z,2.78
2023-01-17T07:39:09.614Z,2.75
2023-01-17T07:41:41.311Z,3.30
2023-01-17T07:44:08.832Z,2.80
2023-01-17T07:46:35.421Z,2.70
2023-01-17T07:49:02.244Z,3.75
2023-01-17T07:51:29.365Z,3.90
2023-01-17T07:53:55.993Z,3.70
2023-01-17T07:56:22.564Z,4.32
2023-01-17T07:58:49.287Z,4.10
2023-01-17T08:01:16.324Z,4.55
2023-01-17T08:03:43.264Z,5.18
2023-01-17T08:06:22.036Z,5.75
2023-01-17T08:08:49.053Z,4.95
2023-01-17T08:11:15.967Z,5.65
2023-01-17T08:13:42.617Z,4.75
2023-01-17T08:16:13.072Z,5.30
2023-01-17T08:18:40.132Z,5.45
2023-01-17T08:21:14.351Z,6.13
2023-01-17T08:23:40.908Z,5.13
2023-01-17T08:26:07.465Z,6.47
2023-01-17T08:28:34.465Z,5.95
2023-01-17T08:31:10.616Z,5.63
2023-01-17T08:33:37.343Z,6.00
2023-01-17T08:36:04.024Z,6.03
2023-01-17T08:38:31.116Z,6.10
2023-01-17T08:41:00.971Z,6.38
2023-01-17T08:43:27.519Z,6.68
2023-01-17T08:45:55.986Z,7.03
2023-01-17T08:48:25.612Z,6.32
2023-01-17T08:50:52.146Z,6.20
2023-01-17T08:53:21.620Z,5.22
2023-01-17T08:55:48.216Z,7.07
2023-01-17T08:58:14.883Z,6.25
2023-01-17T09:00:41.490Z,6.85
2023-01-17T09:03:11.112Z,6.30
2023-01-17T09:05:37.584Z,6.75
2023-01-17T09:08:05.555Z,6.85
2023-01-17T09:10:32.085Z,6.63
2023-01-17T09:12:58.687Z,7.20
2023-01-17T09:15:25.902Z,6.53
2023-01-17T09:17:56.403Z,6.38
2023-01-17T09:20:23.962Z,6.68
2023-01-17T09:22:51.297Z,6.55
2023-01-17T09:25:19.970Z,6.28
2023-01-17T09:27:46.971Z,6.57
2023-01-17T09:30:14.145Z,6.07
2023-01-17T09:32:40.748Z,5.80
2023-01-17T09:35:08.711Z,5.93
2023-01-17T09:37:35.578Z,6.55
2023-01-17T09:40:02.219Z,6.22
2023-01-17T09:42:38.202Z,5.57
2023-01-17T09:45:05.637Z,5.40
2023-01-17T09:47:44.009Z,5.25
2023-01-17T09:50:47.507Z,5.10
2023-01-17T09:53:16.961Z,4.93
2023-01-17T09:55:54.676Z,5.55
2023-01-17T09:58:24.692Z,4.80
2023-01-17T10:01:19.225Z,5.20
2023-01-17T10:04:06.362Z,5.72
2023-01-17T10:06:53.848Z,4.63
2023-01-17T10:09:38.205Z,4.65
2023-01-17T10:12:30.120Z,4.15
2023-01-17T10:15:07.324Z,4.78
2023-01-17T10:17:52.113Z,4.07
2023-01-17T10:20:46.973Z,3.95
2023-01-17T10:23:31.666Z,4.25
2023-01-17T10:26:00.907Z,5.00
2023-01-17T10:28:48.794Z,4.47
2023-01-17T10:31:26.737Z,4.53
2023-01-17T10:33:57.143Z,4.30
2023-01-17T10:36:29.665Z,4.20
2023-01-17T10:39:00.758Z,4.40
2023-01-17T10:41:31.203Z,4.00
2023-01-17T10:44:07.059Z,3.65
2023-01-17T10:46:59.656Z,3.40
2023-01-17T10:49:28.385Z,3.63
2023-01-17T10:52:16.650Z,4.05
2023-01-17T10:55:21.798Z,4.05
2023-01-17T10:57:48.954Z,3.38
2023-01-17T11:00:30.423Z,3.90
2023-01-17T11:02:57.329Z,3.28
2023-01-17T11:05:30.357Z,2.83
2023-01-17T11:08:07.850Z,3.33
2023-01-17T11:10:46.537Z,3.05
2023-01-17T11:13:36.556Z,3.10
2023-01-17T11:16:06.768Z,3.38
2023-01-17T11:18:35.690Z,3.58
2023-01-17T11:21:20.770Z,2.72
2023-01-17T11:23:50.073Z,3.60
2023-01-17T11:26:31.213Z,4.20
2023-01-17T11:29:34.632Z,3.45
2023-01-17T11:32:21.402Z,3.63
2023-01-17T11:35:10.603Z,3.20
2023-01-17T11:37:38.011Z,2.92
2023-01-17T11:40:09.413Z,2.80
2023-01-17T11:42:37.892Z,2.70
2023-01-17T11:45:30.464Z,2.20
2023-01-17T11:48:09.964Z,2.47
2023-01-17T11:50:47.989Z,2.25
2023-01-17T11:53:28.352Z,2.33
2023-01-17T11:56:08.555Z,2.40
2023-01-17T11:58:40.724Z,2.22
2023-01-17T12:01:42.820Z,2.30
2023-01-17T12:04:15.188Z,1.75
2023-01-17T12:07:00.571Z,2.05
2023-01-17T12:09:42.377Z,2.00
2023-01-17T12:13:04.870Z,1.90
2023-01-17T12:16:02.227Z,1.73
2023-01-17T12:18:34.836Z,1.60
2023-01-17T12:21:21.317Z,1.63
2023-01-17T12:23:58.721Z,1.60
2023-01-17T12:26:42.877Z,2.03
2023-01-17T12:29:28.404Z,1.70
2023-01-17T12:32:10.107Z,1.58
2023-01-17T12:34:52.425Z,1.77
2023-01-17T12:37:26.286Z,1.75
2023-01-17T12:40:08.057Z,1.60
2023-01-17T12:42:38.074Z,1.50
2023-01-17T12:45:08.915Z,1.40
2023-01-17T12:47:42.898Z,1.33
2023-01-17T12:50:39.851Z,1.17
2023-01-17T12:53:24.607Z,1.50
2023-01-17T12:55:56.893Z,1.05
2023-01-17T12:58:28.898Z,1.27
2023-01-17T13:03:42.554Z,1.05
2023-01-17T13:06:16.962Z,1.10
2023-01-17T13:08:46.745Z,0.98
2023-01-17T13:11:33.554Z,1.02
2023-01-17T13:14:00.562Z,1.23
2023-01-17T13:16:27.118Z,1.05
2023-01-17T13:18:54.079Z,1.13
2023-01-17T13:21:39.204Z,1.40
2023-01-17T13:24:15.996Z,1.10
2023-01-17T13:27:09.938Z,1.10
2023-01-17T13:29:40.510Z,1.20
2023-01-17T13:32:41.007Z,1.15
2023-01-17T13:35:17.357Z,1.55
2023-01-17T13:37:49.857Z,1.15
2023-01-17T13:40:31.859Z,1.20
2023-01-17T13:43:01.235Z,1.20
2023-01-17T13:45:31.285Z,1.55
2023-01-17T13:48:34.644Z,1.20
2023-01-17T13:51:11.333Z,1.40
2023-01-17T13:53:40.902Z,1.67
2023-01-17T13:56:14.936Z,1.58
2023-01-17T13:58:51.897Z,1.13
2023-01-17T14:01:24.804Z,1.40
2023-01-17T14:03:54.299Z,1.60
2023-01-17T14:06:41.055Z,1.60
2023-01-17T14:09:26.074Z,1.30
2023-01-17T14:11:58.267Z,1.33
2023-01-17T14:14:40.177Z,1.60
2023-01-17T14:17:15.869Z,2.08
2023-01-17T14:19:43.416Z,1.65
2023-01-17T14:22:15.245Z,1.67
2023-01-17T14:25:10.123Z,2.03
2023-01-17T14:27:42.763Z,1.23
2023-01-17T14:30:18.433Z,1.40
2023-01-17T14:33:08.530Z,1.42
2023-01-17T14:35:38.069Z,1.30
2023-01-17T14:38:31.722Z,1.67
2023-01-17T14:41:09.379Z,1.27
2023-01-17T14:43:39.383Z,1.92
2023-01-17T14:46:08.614Z,1.38
2023-01-17T14:48:39.793Z,1.77
2023-01-17T14:51:12.736Z,1.40
2023-01-17T14:53:39.497Z,1.40
2023-01-17T14:56:17.096Z,1.70
2023-01-17T14:58:46.501Z,1.70
2023-01-17T15:01:15.731Z,1.85
2023-01-17T15:03:45.744Z,1.65
2023-01-17T15:06:37.553Z,1.52
2023-01-17T15:09:21.224Z,1.60
2023-01-17T15:11:49.157Z,1.73
2023-01-17T15:14:37.615Z,1.80
2023-01-17T15:17:21.225Z,1.60
2023-01-17T15:19:55.924Z,1.80
2023-01-17T15:22:23.703Z,1.58
2023-01-17T15:24:50.545Z,2.13
2023-01-17T15:27:17.269Z,2.03
2023-01-17T15:29:47.162Z,2.35
2023-01-17T15:32:22.628Z,2.40
2023-01-17T15:34:50.574Z,2.67
2023-01-17T15:37:29.586Z,2.50
2023-01-17T15:40:18.589Z,2.40
2023-01-17T15:42:48.699Z,2.22
2023-01-17T15:45:20.004Z,2.40
2023-01-17T15:47:46.930Z,3.10
2023-01-17T15:50:24.668Z,2.28
2023-01-17T15:52:53.143Z,2.70
2023-01-17T15:55:29.611Z,2.50
2023-01-17T15:57:56.336Z,2.70
2023-01-17T16:00:26.365Z,2.20
2023-01-17T16:02:57.737Z,2.50
2023-01-17T16:05:33.859Z,2.38
2023-01-17T16:08:03.424Z,2.90
2023-01-17T16:10:38.075Z,2.85
2023-01-17T16:13:06.344Z,2.97
2023-01-17T16:15:35.285Z,2.83
2023-01-17T16:18:14.021Z,2.67
2023-01-17T16:20:43.973Z,3.40
2023-01-17T16:23:10.726Z,2.88
2023-01-17T16:25:38.027Z,2.55
2023-01-17T16:28:05.280Z,2.90
2023-01-17T16:30:32.393Z,3.47
2023-01-17T16:32:59.265Z,3.40
2023-01-17T16:35:28.210Z,3.95
2023-01-17T16:37:57.237Z,3.53
2023-01-17T16:40:26.332Z,3.47
2023-01-17T16:42:53.392Z,3.50
2023-01-17T16:45:19.977Z,3.90
2023-01-17T16:47:47.898Z,3.20
2023-01-17T16:50:16.754Z,4.03
2023-01-17T16:52:43.288Z,4.10
2023-01-17T16:55:12.886Z,4.18
2023-01-17T16:57:39.552Z,4.53
2023-01-17T17:00:06.867Z,4.50
2023-01-17T17:02:33.497Z,5.32
2023-01-17T17:05:00.159Z,4.15
2023-01-17T17:07:26.624Z,3.78
2023-01-17T17:09:54.178Z,4.75
2023-01-17T17:12:20.729Z,4.10
2023-01-17T17:14:47.228Z,4.00
2023-01-17T17:17:13.884Z,4.72
2023-01-17T17:19:40.425Z,5.05
2023-01-17T17:22:06.935Z,4.35
2023-01-17T17:24:33.603Z,3.90
2023-01-17T17:27:00.163Z,4.00
2023-01-17T17:29:26.705Z,5.15
2023-01-17T17:31:53.848Z,5.38
2023-01-17T17:34:22.406Z,4.63
2023-01-17T17:36:48.940Z,3.90
2023-01-17T17:39:15.804Z,4.10
2023-01-17T17:41:43.728Z,4.35
2023-01-17T17:44:10.369Z,3.65
2023-01-17T17:46:37.365Z,3.92
2023-01-17T17:49:04.941Z,4.40
2023-01-17T17:51:37.181Z,4.00
2023-01-17T17:54:06.400Z,3.92
2023-01-17T17:56:33.948Z,4.55
2023-01-17T17:59:01.215Z,4.70
2023-01-17T18:01:28.366Z,4.68
2023-01-17T18:03:57.338Z,4.97
2023-01-17T18:06:24.408Z,4.53
2023-01-17T18:08:52.252Z,5.05
2023-01-17T18:11:23.021Z,5.13
2023-01-17T18:13:51.096Z,4.45
2023-01-17T18:16:26.698Z,4.47
2023-01-17T18:18:55.106Z,4.28
2023-01-17T18:21:48.801Z,3.65
2023-01-17T18:24:16.814Z,4.20
2023-01-17T18:26:54.307Z,4.47
2023-01-17T18:29:22.173Z,4.68
2023-01-17T18:31:50.322Z,4.05
2023-01-17T18:34:24.382Z,5.15
2023-01-17T18:36:51.953Z,4.40
2023-01-17T18:39:20.932Z,4.18
2023-01-17T18:41:48.433Z,4.07
2023-01-17T18:44:15.379Z,3.50
2023-01-17T18:46:42.180Z,3.55
2023-01-17T18:49:14.786Z,3.38
2023-01-17T18:51:43.809Z,4.03
2023-01-17T18:54:11.675Z,4.22
2023-01-17T18:56:38.554Z,4.40
2023-01-17T18:59:06.803Z,4.97
2023-01-17T19:01:35.941Z,4.18
2023-01-17T19:04:04.462Z,3.90
2023-01-17T19:06:49.361Z,3.78
2023-01-17T19:09:16.915Z,5.10
2023-01-17T19:11:45.085Z,4.22
2023-01-17T19:14:12.707Z,4.97
2023-01-17T19:16:40.919Z,5.25
2023-01-17T19:19:10.760Z,3.63
2023-01-17T19:21:37.451Z,4.18
2023-01-17T19:24:04.469Z,4.30
2023-01-17T19:26:31.108Z,4.97
2023-01-17T19:28:59.006Z,4.00
2023-01-17T19:31:30.409Z,4.57
2023-01-17T19:33:58.505Z,4.70
2023-01-17T19:36:31.912Z,4.80
2023-01-17T19:39:04.789Z,4.45
2023-01-17T19:41:34.311Z,3.80
2023-01-17T19:44:05.962Z,3.65
2023-01-17T19:46:33.526Z,3.95
2023-01-17T19:49:01.110Z,4.35
2023-01-17T19:51:28.153Z,4.65
2023-01-17T19:53:55.076Z,3.97
2023-01-17T19:56:24.224Z,3.63
2023-01-17T19:58:52.120Z,3.40
2023-01-17T20:01:18.808Z,3.92
2023-01-17T20:03:46.552Z,3.92
2023-01-17T20:06:15.419Z,4.47
2023-01-17T20:08:42.046Z,3.95
2023-01-17T20:11:13.401Z,4.50
2023-01-17T20:13:41.080Z,3.20
2023-01-17T20:16:09.957Z,4.03
2023-01-17T20:18:37.341Z,2.90
2023-01-17T20:21:13.085Z,3.75
2023-01-17T20:23:46.847Z,3.88
2023-01-17T20:26:21.955Z,3.70
2023-01-17T20:28:51.340Z,3.63
2023-01-17T20:31:20.696Z,4.38
2023-01-17T20:33:50.287Z,4.72
2023-01-17T20:36:18.733Z,3.63
2023-01-17T20:38:45.961Z,3.60
2023-01-17T20:41:14.788Z,5.03
2023-01-17T20:43:48.528Z,3.92
2023-01-17T20:46:15.927Z,4.40
2023-01-17T20:48:50.648Z,4.03
2023-01-17T20:51:17.912Z,4.75
2023-01-17T20:53:45.674Z,4.30
2023-01-17T20:56:14.103Z,4.20
2023-01-17T20:58:41.242Z,3.92
2023-01-17T21:01:09.975Z,4.43
2023-01-17T21:03:37.998Z,4.88
2023-01-17T21:06:07.137Z,4.25
2023-01-17T21:08:35.561Z,4.32
2023-01-17T21:11:03.213Z,4.30
2023-01-17T21:13:29.899Z,4.18
2023-01-17T21:15:56.376Z,3.95
2023-01-17T21:18:24.124Z,4.07
2023-01-17T21:20:51.103Z,5.05
2023-01-17T21:23:18.109Z,4.38
2023-01-17T21:26:05.397Z,4.18
2023-01-17T21:28:34.845Z,3.75
2023-01-17T21:31:01.642Z,4.05
2023-01-17T21:33:29.492Z,4.15
2023-01-17T21:36:07.311Z,4.30
2023-01-17T21:38:34.112Z,4.40
2023-01-17T21:41:00.713Z,4.60
2023-01-17T21:43:27.357Z,4.05
2023-01-17T21:45:54.511Z,3.85
2023-01-17T21:48:21.200Z,4.80
2023-01-17T21:50:47.733Z,3.95
2023-01-17T21:53:14.328Z,3.72
2023-01-17T21:55:59.192Z,3.95
2023-01-17T21:58:44.250Z,3.47
2023-01-17T22:01:18.268Z,3.35
2023-01-17T22:03:49.294Z,3.92
2023-01-17T22:06:16.319Z,3.60
2023-01-17T22:08:43.203Z,4.00
2023-01-17T22:11:12.666Z,3.58
2023-01-17T22:13:41.097Z,3.92
2023-01-17T22:16:10.927Z,3.70
2023-01-17T22:18:39.388Z,4.35
2023-01-17T22:21:16.995Z,4.97
2023-01-17T22:23:54.220Z,4.88
2023-01-17T22:26:23.275Z,4.45
2023-01-17T22:28:50.298Z,4.47
2023-01-17T22:31:25.136Z,5.00
2023-01-17T22:33:54.495Z,5.22
2023-01-17T22:36:21.040Z,4.68
2023-01-17T22:38:48.167Z,5.15
2023-01-17T22:41:17.077Z,4.95
2023-01-17T22:43:46.750Z,5.00
2023-01-17T22:46:17.066Z,4.70
2023-01-17T22:48:43.832Z,4.88
2023-01-17T22:51:12.975Z,4.70
2023-01-17T22:53:41.301Z,4.70
2023-01-17T22:56:10.123Z,4.80
2023-01-17T22:58:36.656Z,4.35
2023-01-17T23:01:27.352Z,4.55
2023-01-17T23:04:01.994Z,3.88
2023-01-17T23:06:30.514Z,4.03
2023-01-17T23:08:59.655Z,4.07
2023-01-17T23:11:43.919Z,3.95
2023-01-17T23:14:16.645Z,5.47
2023-01-17T23:17:13.501Z,4.35
2023-01-17T23:19:44.985Z,6.22
2023-01-17T23:22:23.511Z,4.95
2023-01-17T23:24:50.038Z,5.20
2023-01-17T23:27:39.927Z,5.30
2023-01-17T23:30:10.929Z,4.82
2023-01-17T23:32:43.814Z,4.68
2023-01-17T23:35:10.404Z,4.82
2023-01-17T23:37:55.264Z,4.82
2023-01-17T23:40:22.214Z,5.15
2023-01-17T23:43:07.264Z,4.50
2023-01-17T23:45:35.669Z,4.50
2023-01-17T23:48:05.458Z,4.72
2023-01-17T23:50:32.996Z,4.93
2023-01-17T23:52:59.981Z,5.03
2023-01-17T23:55:26.809Z,5.55
2023-01-17T23:57:54.345Z,6.55
